Time;durP1;ratioP1;P1;durP2;ratioP2;P2;SDS_P1;SDS_P2;PMS_P1;PMS_P2;Temp;Humidity;BMP_temperature;BMP_pressure;BME280_temperature;BME280_humidity;BME280_pressure;Samples;Min_cycle;Max_cycle;Signal;HPM_P1;HPM_P2
2022/03/22 00:00:59;;;;;;;36.35;19.10;;;;;;;5.22;87.40;103189.25;5026515;28;20083;-75
2022/03/22 00:03:25;;;;;;;29.40;16.08;;;;;;;5.12;86.96;103175.69;5025749;28;20048;-74
2022/03/22 00:05:52;;;;;;;29.45;16.88;;;;;;;5.25;86.23;103181.31;5017454;28;20038;-74
2022/03/22 00:08:18;;;;;;;30.90;16.83;;;;;;;5.24;87.30;103194.44;5022065;28;20037;-74
2022/03/22 00:10:44;;;;;;;29.15;17.95;;;;;;;5.20;87.37;103175.38;5026837;28;20029;-76
2022/03/22 00:13:10;;;;;;;32.05;17.92;;;;;;;5.19;87.88;103186.78;5026891;28;20375;-75
2022/03/22 00:15:35;;;;;;;30.33;18.23;;;;;;;5.02;89.14;103163.84;5024334;28;20037;-74
2022/03/22 00:18:01;;;;;;;31.38;18.38;;;;;;;5.07;90.01;103171.50;5023647;28;20162;-74
2022/03/22 00:20:27;;;;;;;30.80;19.17;;;;;;;5.06;90.18;103181.13;5024891;28;20037;-75
2022/03/22 00:22:53;;;;;;;33.05;18.33;;;;;;;5.02;90.64;103184.78;5019234;28;20083;-74
2022/03/22 00:25:19;;;;;;;38.47;19.77;;;;;;;5.07;91.29;103185.44;5017297;28;20445;-74
2022/03/22 00:27:55;;;;;;;33.10;18.95;;;;;;;4.94;90.44;103161.53;5020658;28;20026;-74
2022/03/22 00:30:21;;;;;;;37.30;19.77;;;;;;;5.01;91.48;103182.22;5027182;28;20021;-74
2022/03/22 00:32:54;;;;;;;40.63;21.70;;;;;;;5.00;91.20;103190.97;5019966;28;20029;-74
2022/03/22 00:35:36;;;;;;;34.78;19.42;;;;;;;4.97;92.37;103186.72;5021002;28;20033;-74
2022/03/22 00:38:03;;;;;;;35.45;18.83;;;;;;;4.90;91.73;103180.84;5021601;28;20036;-75
2022/03/22 00:40:28;;;;;;;34.05;19.05;;;;;;;4.91;92.56;103190.41;5002174;28;20030;-75
2022/03/22 00:42:54;;;;;;;31.63;19.48;;;;;;;4.89;92.52;103189.59;5014000;28;20486;-74
2022/03/22 00:45:32;;;;;;;33.10;20.15;;;;;;;4.80;93.57;103174.25;5019336;28;20029;-74
2022/03/22 00:47:58;;;;;;;34.70;19.27;;;;;;;4.88;93.72;103182.66;5014541;28;20064;-74
2022/03/22 00:50:33;;;;;;;37.25;20.60;;;;;;;4.82;92.68;103169.81;5018625;28;20033;-74
2022/03/22 00:53:00;;;;;;;39.22;21.30;;;;;;;4.93;93.21;103174.66;5019095;28;20063;-74
2022/03/22 00:55:27;;;;;;;38.05;21.20;;;;;;;4.91;93.42;103174.69;5014281;28;20110;-74
2022/03/22 00:57:54;;;;;;;36.47;20.10;;;;;;;4.97;93.97;103183.25;5021291;28;20037;-74
2022/03/22 01:00:24;;;;;;;33.42;19.65;;;;;;;5.03;93.73;103180.38;5022943;28;20037;-74
2022/03/22 01:02:49;;;;;;;45.53;22.08;;;;;;;5.11;94.45;103183.59;5024462;28;20061;-74
2022/03/22 01:05:19;;;;;;;35.65;20.58;;;;;;;5.15;93.39;103185.19;5011399;28;20049;-74
2022/03/22 01:07:53;;;;;;;37.75;21.70;;;;;;;5.18;92.46;103169.34;5024596;28;20251;-74
2022/03/22 01:10:20;;;;;;;42.17;21.40;;;;;;;5.19;92.47;103165.81;5010553;28;20021;-74
2022/03/22 01:12:47;;;;;;;33.92;19.92;;;;;;;5.27;91.65;103173.38;5003199;28;20041;-75
2022/03/22 01:15:16;;;;;;;39.42;21.67;;;;;;;5.17;91.31;103148.47;5012847;28;20363;-75
2022/03/22 01:17:43;;;;;;;36.33;20.52;;;;;;;5.28;91.31;103175.94;5010669;28;20072;-75
2022/03/22 01:20:10;;;;;;;34.72;19.70;;;;;;;5.30;91.02;103168.03;5022585;28;20029;-75
2022/03/22 01:22:38;;;;;;;38.60;20.10;;;;;;;5.21;90.95;103158.78;5012146;28;20030;-74
2022/03/22 01:25:07;;;;;;;37.22;20.67;;;;;;;5.27;90.68;103163.78;5015527;28;20080;-74
2022/03/22 01:27:33;;;;;;;39.13;21.35;;;;;;;5.27;89.67;103173.38;5019204;28;20081;-74
2022/03/22 01:29:58;;;;;;;38.20;20.30;;;;;;;5.26;90.41;103164.69;5018367;28;20029;-75
2022/03/22 01:32:24;;;;;;;37.40;20.02;;;;;;;5.24;89.52;103165.66;5020996;28;20358;-75
2022/03/22 01:34:50;;;;;;;34.88;20.65;;;;;;;5.20;90.41;103162.28;5016968;28;20029;-74
2022/03/22 01:37:15;;;;;;;45.03;21.63;;;;;;;5.22;90.13;103164.84;5016506;28;20026;-74
2022/03/22 01:39:41;;;;;;;40.90;20.75;;;;;;;5.21;89.17;103163.16;5017721;28;20048;-74
2022/03/22 01:42:06;;;;;;;36.15;19.77;;;;;;;5.21;89.80;103164.00;5019790;28;20033;-74
2022/03/22 01:44:32;;;;;;;36.17;20.85;;;;;;;5.25;88.67;103159.53;5016100;28;20148;-74
2022/03/22 01:47:03;;;;;;;32.70;20.48;;;;;;;5.27;88.78;103158.53;5013451;28;20030;-74
2022/03/22 01:49:29;;;;;;;36.55;19.40;;;;;;;5.31;88.31;103164.50;5014261;28;20018;-75
2022/03/22 01:51:56;;;;;;;36.63;20.73;;;;;;;5.29;87.48;103146.25;5015866;28;20095;-74
2022/03/22 01:54:22;;;;;;;36.20;20.13;;;;;;;5.38;87.49;103154.63;5013731;28;20026;-74
2022/03/22 01:56:49;;;;;;;35.55;20.27;;;;;;;5.38;86.63;103149.41;5012452;28;20030;-74
2022/03/22 01:59:15;;;;;;;31.88;19.50;;;;;;;5.45;86.70;103156.97;5013814;28;20029;-75
2022/03/22 02:07:13;;;;;;;30.95;18.80;;;;;;;5.39;85.39;103140.66;5018975;28;20028;-74
2022/03/22 02:09:38;;;;;;;35.35;20.60;;;;;;;5.47;85.79;103151.69;5001277;28;20544;-74
2022/03/22 02:12:04;;;;;;;40.75;20.60;;;;;;;5.41;85.24;103144.06;5016341;28;20029;-74
2022/03/22 02:14:30;;;;;;;36.28;19.75;;;;;;;5.46;85.69;103153.44;5020991;28;20033;-74
2022/03/22 02:16:55;;;;;;;36.53;19.55;;;;;;;5.47;85.18;103155.16;5019531;28;20017;-75
2022/03/22 02:19:21;;;;;;;33.75;19.17;;;;;;;5.46;85.21;103150.81;5017135;28;20141;-75
2022/03/22 02:21:51;;;;;;;36.47;20.67;;;;;;;5.41;84.75;103131.81;5018914;28;20436;-75
2022/03/22 02:24:16;;;;;;;34.53;19.70;;;;;;;5.47;84.61;103144.66;5017332;28;20061;-75
2022/03/22 02:26:42;;;;;;;39.30;19.70;;;;;;;5.49;84.29;103139.38;5017777;28;20470;-75
2022/03/22 02:29:07;;;;;;;33.58;19.40;;;;;;;5.51;84.33;103130.53;5020898;28;20021;-74
2022/03/22 02:31:33;;;;;;;36.47;19.60;;;;;;;5.48;84.13;103140.28;5014193;28;20381;-74
2022/03/22 02:33:59;;;;;;;36.08;20.48;;;;;;;5.47;84.86;103136.81;5019226;28;20068;-75
2022/03/22 02:36:25;;;;;;;29.83;18.63;;;;;;;5.47;84.65;103141.22;5021450;28;20394;-74
2022/03/22 02:38:51;;;;;;;34.30;19.17;;;;;;;5.50;84.09;103135.84;5015821;28;20489;-74
2022/03/22 02:41:20;;;;;;;34.30;19.17;;;;;;;5.54;84.34;103140.03;5017406;28;20041;-74
2022/03/22 02:43:48;;;;;;;38.95;19.75;;;;;;;5.56;83.45;103132.97;5022078;28;20050;-74
2022/03/22 02:46:14;;;;;;;32.50;19.08;;;;;;;5.55;83.98;103136.50;5018161;28;20033;-75
2022/03/22 02:48:41;;;;;;;32.78;19.27;;;;;;;5.58;83.74;103131.16;5020695;28;20337;-74
2022/03/22 02:51:07;;;;;;;36.03;20.77;;;;;;;5.48;83.48;103119.31;5016367;28;20471;-74
2022/03/22 02:53:33;;;;;;;35.30;19.00;;;;;;;5.36;83.58;103113.66;5015771;28;20044;-74
2022/03/22 02:55:58;;;;;;;31.33;19.67;;;;;;;5.42;83.87;103132.66;5004734;28;20454;-75
2022/03/22 02:58:24;;;;;;;34.72;19.73;;;;;;;5.46;83.89;103137.72;5019744;28;20116;-75
2022/03/22 03:00:49;;;;;;;36.63;19.95;;;;;;;5.50;83.73;103149.78;5016452;28;20521;-74
2022/03/22 03:03:15;;;;;;;37.88;19.42;;;;;;;5.49;84.37;103142.00;5019262;28;20497;-75
2022/03/22 03:05:40;;;;;;;35.00;20.40;;;;;;;5.31;83.99;103131.34;5013315;28;20034;-74
2022/03/22 03:08:06;;;;;;;32.50;19.83;;;;;;;5.27;84.97;103132.38;5003235;28;20087;-74
2022/03/22 03:10:32;;;;;;;36.92;19.15;;;;;;;5.26;85.12;103138.50;5004091;28;20116;-74
2022/03/22 03:13:00;;;;;;;38.83;21.27;;;;;;;5.14;85.20;103125.91;5018831;28;20120;-75
2022/03/22 03:15:25;;;;;;;35.60;19.52;;;;;;;5.26;84.81;103146.34;5022378;28;20021;-74
2022/03/22 03:17:50;;;;;;;35.95;19.00;;;;;;;5.28;84.65;103149.75;5017427;28;20060;-73
2022/03/22 03:20:16;;;;;;;37.10;19.33;;;;;;;5.26;84.88;103145.50;5021770;28;20037;-75
2022/03/22 03:22:41;;;;;;;33.42;18.67;;;;;;;5.26;84.73;103141.13;5000899;28;20029;-77
2022/03/22 03:25:08;;;;;;;35.30;19.40;;;;;;;5.24;84.64;103136.84;5019402;28;20049;-74
2022/03/22 03:27:34;;;;;;;37.47;17.05;;;;;;;5.22;85.38;103139.53;5023715;28;20038;-74
2022/03/22 03:30:00;;;;;;;33.05;19.75;;;;;;;5.21;85.45;103136.97;5016785;28;20026;-76
2022/03/22 03:32:25;;;;;;;28.77;18.65;;;;;;;5.18;85.17;103144.94;5018105;28;20042;-74
2022/03/22 03:34:51;;;;;;;34.58;20.00;;;;;;;5.15;84.86;103138.06;5000285;28;20112;-74
2022/03/22 03:37:17;;;;;;;35.78;18.25;;;;;;;5.12;84.91;103143.41;4999120;28;20069;-74
2022/03/22 03:39:43;;;;;;;35.78;21.45;;;;;;;5.10;85.56;103145.25;5013432;28;20038;-74
2022/03/22 03:42:09;;;;;;;37.55;20.92;;;;;;;5.08;85.64;103157.53;5019054;28;20390;-75
2022/03/22 03:47:22;;;;;;;48.78;20.30;;;;;;;5.03;85.51;103139.38;5015752;28;20398;-74
2022/03/22 03:49:54;;;;;;;34.10;19.30;;;;;;;5.03;86.11;103160.31;5019805;28;20120;-75
2022/03/22 03:52:20;;;;;;;37.47;21.35;;;;;;;5.05;85.47;103157.63;5016175;28;20029;-76
2022/03/22 03:54:46;;;;;;;32.90;19.83;;;;;;;5.12;85.90;103164.38;5021632;28;20021;-75
2022/03/22 03:57:13;;;;;;;37.70;20.15;;;;;;;5.16;84.71;103158.06;5020217;28;20037;-75
2022/03/22 03:59:40;;;;;;;37.03;20.10;;;;;;;5.15;85.48;103164.25;5018273;28;20396;-75
2022/03/22 04:02:06;;;;;;;42.47;20.25;;;;;;;5.11;85.19;103154.78;5017954;28;20060;-75
2022/03/22 04:04:35;;;;;;;37.85;20.80;;;;;;;5.09;84.63;103170.53;5017172;28;20079;-75
2022/03/22 04:07:01;;;;;;;36.28;20.40;;;;;;;4.94;84.75;103151.06;5020258;28;20156;-75
2022/03/22 04:09:26;;;;;;;36.90;21.23;;;;;;;4.91;85.37;103151.16;5016399;28;20030;-75
2022/03/22 04:11:52;;;;;;;35.38;21.15;;;;;;;4.98;85.96;103167.47;5014203;28;20449;-75
2022/03/22 04:14:18;;;;;;;37.95;19.35;;;;;;;4.98;85.89;103161.41;4999024;28;20059;-75
2022/03/22 04:16:44;;;;;;;35.25;20.58;;;;;;;4.98;85.29;103156.16;4999142;28;20497;-75
2022/03/22 04:19:09;;;;;;;34.13;18.23;;;;;;;5.06;84.79;103172.44;5013827;28;20034;-75
2022/03/22 04:21:36;;;;;;;33.72;18.90;;;;;;;5.05;84.77;103175.94;5001345;28;20366;-74
2022/03/22 04:24:07;;;;;;;37.20;19.45;;;;;;;5.04;85.06;103175.09;5019177;28;20080;-75
2022/03/22 04:26:38;;;;;;;36.63;19.98;;;;;;;4.89;84.84;103152.97;5013931;28;20036;-75
2022/03/22 04:34:33;;;;;;;35.28;20.73;;;;;;;4.97;85.45;103175.41;5017811;28;20583;-74
2022/03/22 04:36:59;;;;;;;35.13;19.33;;;;;;;4.92;85.30;103168.56;5017645;28;20029;-74
2022/03/22 04:39:26;;;;;;;39.35;20.25;;;;;;;4.90;84.95;103173.00;4996820;28;20037;-74
2022/03/22 04:41:53;;;;;;;36.40;20.88;;;;;;;4.86;85.86;103179.25;5013340;28;20037;-74
2022/03/22 04:44:18;;;;;;;38.50;20.02;;;;;;;4.83;85.31;103171.50;5016105;28;20033;-74
2022/03/22 04:46:44;;;;;;;33.60;19.65;;;;;;;4.81;85.36;103165.47;5017003;28;20028;-74
2022/03/22 04:49:10;;;;;;;35.60;20.83;;;;;;;4.81;85.81;103170.69;5018340;28;20030;-74
2022/03/22 04:57:04;;;;;;;35.55;19.38;;;;;;;4.77;86.81;103174.38;5019066;28;20048;-75
2022/03/22 04:59:29;;;;;;;35.00;20.95;;;;;;;4.65;86.45;103154.72;5013320;28;20029;-74
2022/03/22 05:01:55;;;;;;;32.45;20.02;;;;;;;4.76;86.22;103175.25;5015967;28;20072;-74
2022/03/22 05:04:21;;;;;;;29.25;19.33;;;;;;;4.63;86.10;103167.00;5016623;28;20113;-74
2022/03/22 05:06:47;;;;;;;38.70;21.20;;;;;;;4.62;86.58;103159.22;5017717;28;20105;-74
2022/03/22 05:09:12;;;;;;;33.92;20.48;;;;;;;4.72;86.10;103182.34;5014292;28;20419;-74
2022/03/22 05:11:39;;;;;;;33.30;20.23;;;;;;;4.70;86.21;103178.09;5013886;28;20030;-74
2022/03/22 05:14:04;;;;;;;37.42;20.50;;;;;;;4.73;86.58;103178.00;5015057;28;20072;-74
2022/03/22 05:16:30;;;;;;;35.03;20.40;;;;;;;4.67;86.29;103180.81;5018752;28;20482;-74
2022/03/22 05:18:56;;;;;;;38.42;20.13;;;;;;;4.76;86.79;103193.56;5015848;28;20029;-74
2022/03/22 05:21:22;;;;;;;32.78;19.30;;;;;;;4.61;86.72;103167.94;5017136;28;20460;-75
2022/03/22 05:23:48;;;;;;;35.65;20.77;;;;;;;4.70;86.75;103192.03;5017319;28;20461;-75
2022/03/22 05:26:13;;;;;;;34.60;19.08;;;;;;;4.69;86.76;103194.69;5017696;28;20030;-74
2022/03/22 05:28:40;;;;;;;36.63;20.58;;;;;;;4.67;86.40;103188.66;5015317;28;20026;-74
2022/03/22 05:31:08;;;;;;;34.63;20.55;;;;;;;4.65;86.62;103191.31;5016976;28;20044;-74
2022/03/22 05:33:34;;;;;;;33.97;18.80;;;;;;;4.70;86.15;103191.16;5015639;28;20080;-74
2022/03/22 05:36:00;;;;;;;33.33;19.45;;;;;;;4.71;87.07;103187.66;5015272;28;20041;-75
2022/03/22 05:38:25;;;;;;;38.40;20.25;;;;;;;4.72;85.89;103195.44;4996522;28;20111;-75
2022/03/22 05:40:53;;;;;;;33.17;18.90;;;;;;;4.75;86.15;103197.09;5013690;28;20076;-74
2022/03/22 05:43:18;;;;;;;31.17;19.98;;;;;;;4.66;86.08;103181.72;5005167;28;20130;-73
2022/03/22 05:45:48;;;;;;;33.95;19.23;;;;;;;4.76;85.87;103203.19;4988832;28;20046;-73
2022/03/22 05:48:18;;;;;;;34.20;20.17;;;;;;;4.72;86.69;103198.03;5007128;28;20037;-73
2022/03/22 05:50:43;;;;;;;34.00;20.77;;;;;;;4.64;86.41;103192.25;4995123;28;20498;-74
2022/03/22 05:53:10;;;;;;;36.85;19.38;;;;;;;4.72;86.09;103202.44;5013801;28;20410;-73
2022/03/22 05:55:36;;;;;;;35.85;19.50;;;;;;;4.72;86.09;103203.28;5014691;28;20036;-73
2022/03/22 05:58:02;;;;;;;39.10;20.10;;;;;;;4.54;86.64;103173.41;5016145;28;20466;-75
2022/03/22 06:00:28;;;;;;;38.80;21.27;;;;;;;4.70;86.36;103212.09;5015699;28;20034;-73
2022/03/22 06:02:53;;;;;;;35.60;22.00;;;;;;;4.72;86.30;103213.75;5016288;28;20103;-73
2022/03/22 06:05:19;;;;;;;33.78;20.42;;;;;;;4.79;85.90;103211.78;5015547;28;20040;-75
2022/03/22 06:07:44;;;;;;;39.10;20.27;;;;;;;4.77;86.66;103215.34;5011340;28;20026;-73
2022/03/22 06:10:14;;;;;;;32.92;19.70;;;;;;;4.78;86.92;103219.69;5019468;28;20053;-73
2022/03/22 06:12:47;;;;;;;36.42;20.45;;;;;;;4.81;86.64;103220.41;5013735;28;20060;-75
2022/03/22 06:15:17;;;;;;;37.63;19.90;;;;;;;4.80;86.26;103208.25;5015993;28;20026;-74
2022/03/22 06:17:56;;;;;;;36.28;20.77;;;;;;;4.81;86.01;103193.41;5012363;28;20041;-79
2022/03/22 06:20:26;;;;;;;31.83;18.77;;;;;;;4.94;85.76;103216.47;5019354;28;20091;-78
2022/03/22 06:22:52;;;;;;;32.30;19.20;;;;;;;4.82;85.34;103202.97;5014212;28;20354;-79
2022/03/22 06:25:18;;;;;;;32.63;19.02;;;;;;;4.85;85.42;103203.69;5012881;28;20052;-78
2022/03/22 06:27:46;;;;;;;32.05;19.92;;;;;;;5.03;84.71;103227.50;5019850;28;20112;-73
2022/03/22 06:30:13;;;;;;;29.25;18.33;;;;;;;5.04;84.87;103232.69;5018740;28;20533;-73
2022/03/22 06:32:46;;;;;;;34.63;21.10;;;;;;;5.06;84.50;103227.41;5019841;28;20064;-73
2022/03/22 06:35:19;;;;;;;33.28;19.88;;;;;;;5.11;84.74;103228.09;5019034;28;20037;-74
2022/03/22 06:37:46;;;;;;;36.50;20.02;;;;;;;5.18;84.65;103232.19;5011084;28;20149;-73
2022/03/22 06:40:14;;;;;;;31.80;19.70;;;;;;;5.25;84.92;103236.28;5009275;28;20398;-73
2022/03/22 06:42:40;;;;;;;34.35;20.20;;;;;;;5.33;84.08;103236.88;5012967;28;20037;-72
2022/03/22 06:45:07;;;;;;;29.60;18.55;;;;;;;5.44;84.20;103235.59;5005614;28;20446;-72
2022/03/22 06:47:34;;;;;;;33.00;19.92;;;;;;;5.50;83.68;103220.50;5011825;28;20125;-73
2022/03/22 06:50:00;;;;;;;35.28;19.92;;;;;;;5.70;83.36;103240.69;5010805;28;20553;-72
2022/03/22 06:52:26;;;;;;;32.25;19.05;;;;;;;5.83;83.09;103240.22;5012205;28;20109;-72
2022/03/22 06:54:51;;;;;;;36.58;20.00;;;;;;;5.96;82.38;103241.47;5013121;28;20070;-73
2022/03/22 06:57:17;;;;;;;32.90;19.05;;;;;;;6.08;81.53;103248.00;5017873;28;20041;-72
2022/03/22 06:59:42;;;;;;;31.00;17.73;;;;;;;6.21;81.55;103240.50;5014570;28;20048;-72
2022/03/22 07:02:09;;;;;;;32.05;18.48;;;;;;;6.34;80.74;103247.78;5011347;28;20087;-72
2022/03/22 07:04:34;;;;;;;31.60;18.08;;;;;;;6.55;80.44;103250.41;5013852;28;20021;-72
2022/03/22 07:07:00;;;;;;;32.88;18.70;;;;;;;6.58;79.15;103230.16;5013718;28;20482;-73
2022/03/22 07:09:26;;;;;;;31.55;20.95;;;;;;;6.87;79.30;103251.66;5014265;28;20587;-73
2022/03/22 07:11:52;;;;;;;32.15;19.27;;;;;;;7.08;79.05;103254.28;5015094;28;20025;-73
2022/03/22 07:14:25;;;;;;;33.35;17.77;;;;;;;7.29;77.95;103250.66;5013646;28;20414;-73
2022/03/22 07:16:51;;;;;;;32.97;18.95;;;;;;;7.38;76.92;103250.28;5012663;28;20105;-73
2022/03/22 07:19:19;;;;;;;31.42;18.35;;;;;;;7.29;76.64;103237.53;5012527;28;20506;-73
2022/03/22 07:21:45;;;;;;;32.20;18.27;;;;;;;7.38;76.37;103262.53;5016845;28;20444;-73
2022/03/22 07:24:12;;;;;;;34.20;20.15;;;;;;;7.35;76.74;103263.53;5015680;28;20021;-73
2022/03/22 07:26:39;;;;;;;31.10;19.30;;;;;;;7.42;76.92;103264.09;5021638;28;20064;-73
2022/03/22 07:29:05;;;;;;;32.15;18.27;;;;;;;7.56;76.67;103268.75;5018532;28;20061;-73
2022/03/22 07:31:30;;;;;;;36.25;20.75;;;;;;;7.61;76.64;103277.25;5018006;28;20530;-73
2022/03/22 07:33:56;;;;;;;31.38;18.75;;;;;;;7.60;76.55;103283.44;5018215;28;20041;-73
2022/03/22 07:36:23;;;;;;;33.20;18.92;;;;;;;7.63;76.61;103281.50;5021199;28;20026;-74
2022/03/22 07:38:48;;;;;;;29.95;19.20;;;;;;;7.77;76.56;103286.16;5018635;28;20673;-74
2022/03/22 07:41:14;;;;;;;30.77;19.52;;;;;;;8.00;76.18;103285.03;5021468;28;20033;-74
2022/03/22 07:43:41;;;;;;;29.92;18.90;;;;;;;8.11;75.08;103281.91;4996325;28;20116;-73
2022/03/22 07:46:07;;;;;;;30.15;18.45;;;;;;;8.18;75.34;103280.66;5015062;28;20033;-73
2022/03/22 07:48:33;;;;;;;32.60;20.30;;;;;;;8.21;75.19;103275.28;5015969;28;20034;-73
2022/03/22 07:53:44;;;;;;;29.42;19.35;;;;;;;8.31;75.35;103285.34;5019688;28;20079;-73
2022/03/22 07:56:10;;;;;;;34.38;18.92;;;;;;;8.41;75.91;103279.59;5021040;28;20380;-73
2022/03/22 07:58:36;;;;;;;28.52;18.90;;;;;;;8.79;75.76;103274.16;5017926;28;20025;-73
2022/03/22 08:01:01;;;;;;;31.40;20.10;;;;;;;9.11;74.17;103289.22;5018314;28;20033;-74
2022/03/22 08:03:27;;;;;;;29.60;20.02;;;;;;;9.31;74.99;103289.00;5014403;28;20509;-74
2022/03/22 08:05:52;;;;;;;32.13;19.63;;;;;;;9.52;73.86;103280.91;5019554;28;20062;-74
2022/03/22 08:08:18;;;;;;;31.70;19.70;;;;;;;10.36;73.18;103283.25;5003103;28;20029;-74
2022/03/22 08:10:45;;;;;;;31.65;20.77;;;;;;;11.26;70.55;103269.06;4985085;28;20269;-74
2022/03/22 08:13:11;;;;;;;25.90;18.05;;;;;;;12.04;68.06;103277.34;5012269;28;20052;-74
2022/03/22 08:15:37;;;;;;;28.58;18.98;;;;;;;12.74;65.11;103290.31;5015189;28;20087;-74
2022/03/22 08:18:04;;;;;;;29.27;19.75;;;;;;;13.57;62.49;103299.66;5016524;28;20493;-74
2022/03/22 08:20:30;;;;;;;30.02;19.75;;;;;;;14.36;61.39;103290.28;4998638;28;20427;-74
2022/03/22 08:23:03;;;;;;;27.15;19.80;;;;;;;15.23;58.91;103290.72;5014217;28;20017;-74
2022/03/22 08:25:39;;;;;;;31.13;19.98;;;;;;;15.45;57.84;103304.13;5016674;28;20033;-74
2022/03/22 08:28:07;;;;;;;30.92;21.35;;;;;;;14.89;57.98;103302.28;5017057;28;20021;-74
2022/03/22 08:30:34;;;;;;;28.60;20.58;;;;;;;14.92;57.95;103304.72;5017415;28;20022;-74
2022/03/22 08:33:09;;;;;;;29.40;20.90;;;;;;;15.70;56.90;103321.63;5018055;28;20518;-74
2022/03/22 08:35:41;;;;;;;27.63;19.95;;;;;;;15.84;56.18;103313.44;5020628;28;20358;-74
2022/03/22 08:38:08;;;;;;;30.15;21.90;;;;;;;15.56;55.63;103318.28;5014612;28;20034;-74
2022/03/22 08:40:33;;;;;;;27.90;20.67;;;;;;;16.80;54.31;103315.22;5015443;28;20117;-74
2022/03/22 08:42:59;;;;;;;26.25;18.88;;;;;;;17.23;53.68;103322.19;5015041;28;20308;-74
2022/03/22 08:45:26;;;;;;;30.55;20.80;;;;;;;17.18;52.37;103316.44;5020492;28;20069;-74
2022/03/22 08:47:53;;;;;;;27.52;20.50;;;;;;;17.12;52.89;103314.28;5017618;28;20022;-74
2022/03/22 08:50:21;;;;;;;26.65;20.13;;;;;;;17.44;52.84;103313.28;5019511;28;20037;-75
2022/03/22 08:52:48;;;;;;;28.95;19.75;;;;;;;17.95;50.42;103306.97;5017512;28;20477;-74
2022/03/22 08:55:15;;;;;;;27.30;20.02;;;;;;;18.55;50.08;103317.50;5015166;28;20431;-74
2022/03/22 08:57:42;;;;;;;29.52;20.33;;;;;;;17.87;49.99;103318.34;5020242;28;20114;-75
2022/03/22 09:00:11;;;;;;;30.65;21.30;;;;;;;17.15;50.79;103311.34;4998156;28;20042;-75
2022/03/22 09:02:40;;;;;;;29.48;20.17;;;;;;;17.68;52.29;103310.25;5018893;28;20057;-75
2022/03/22 09:07:52;;;;;;;30.70;19.88;;;;;;;18.45;49.50;103292.63;5016018;28;20045;-75
2022/03/22 09:10:20;;;;;;;30.05;21.15;;;;;;;18.99;48.42;103311.69;5001729;28;20409;-75
2022/03/22 09:12:49;;;;;;;31.75;20.63;;;;;;;19.76;45.90;103317.72;5016433;28;20025;-75
2022/03/22 09:15:16;;;;;;;27.30;19.63;;;;;;;19.71;45.33;103313.63;5018417;28;20025;-75
2022/03/22 09:17:41;;;;;;;24.60;18.52;;;;;;;20.55;45.17;103312.38;5015162;28;20041;-75
2022/03/22 09:20:07;;;;;;;26.38;20.05;;;;;;;20.72;44.01;103308.00;5020990;28;20036;-75
2022/03/22 09:22:34;;;;;;;29.00;19.17;;;;;;;20.88;44.23;103301.06;5019066;28;20029;-75
2022/03/22 09:25:00;;;;;;;26.13;19.20;;;;;;;21.05;42.48;103296.63;5017709;28;20064;-76
2022/03/22 09:27:26;;;;;;;25.08;19.38;;;;;;;21.03;43.16;103287.91;5012938;28;20071;-76
2022/03/22 09:29:51;;;;;;;27.50;19.23;;;;;;;21.16;43.43;103293.66;4995983;28;20113;-76
2022/03/22 09:32:16;;;;;;;23.27;19.48;;;;;;;20.63;43.15;103284.81;5019834;28;20664;-76
2022/03/22 09:34:43;;;;;;;28.77;19.75;;;;;;;20.34;43.99;103302.00;5015597;28;20030;-76
2022/03/22 09:37:14;;;;;;;28.60;19.75;;;;;;;20.49;43.56;103283.53;5019131;28;20060;-76
2022/03/22 09:39:39;;;;;;;;;;;;;;;21.60;43.13;103304.28;5011465;28;20084;-76
2022/03/22 09:42:07;;;;;;;24.88;19.30;;;;;;;21.11;43.53;103280.72;5015093;28;20320;-76
2022/03/22 09:44:34;;;;;;;25.70;20.52;;;;;;;22.15;41.30;103290.25;5017509;28;20109;-75
2022/03/22 09:47:01;;;;;;;27.42;20.55;;;;;;;21.70;42.58;103306.81;5009078;28;20040;-75
2022/03/22 09:49:27;;;;;;;23.95;19.38;;;;;;;23.76;40.48;103281.25;5015679;28;20030;-75
2022/03/22 09:51:53;;;;;;;24.00;18.83;;;;;;;23.67;40.66;103301.13;5014547;28;20041;-75
2022/03/22 09:54:22;;;;;;;30.38;20.48;;;;;;;23.10;40.08;103294.19;5020591;28;20084;-75
2022/03/22 09:56:49;;;;;;;28.52;19.70;;;;;;;24.92;38.28;103296.22;5010860;28;20041;-75
2022/03/22 09:59:15;;;;;;;22.00;19.60;;;;;;;26.02;36.95;103305.25;5019247;28;20340;-76
2022/03/22 10:01:42;;;;;;;25.15;19.95;;;;;;;25.23;36.61;103297.91;5012533;28;20453;-75
2022/03/22 10:04:12;;;;;;;25.35;20.20;;;;;;;25.47;25.14;103298.59;5016567;28;20609;-75
2022/03/22 10:06:44;;;;;;;25.40;19.58;;;;;;;26.29;36.05;103289.25;5012812;28;20033;-76
2022/03/22 10:09:09;;;;;;;26.77;20.70;;;;;;;24.84;37.47;103294.44;5010918;28;20068;-75
2022/03/22 10:11:43;;;;;;;30.52;20.33;;;;;;;23.48;38.86;103288.97;5010560;28;20037;-74
2022/03/22 10:14:10;;;;;;;26.75;19.00;;;;;;;23.91;40.70;103273.19;5017219;28;20481;-75
2022/03/22 10:16:50;;;;;;;28.92;18.52;;;;;;;25.65;36.15;103293.59;5016791;28;20037;-76
2022/03/22 10:19:23;;;;;;;25.90;19.80;;;;;;;24.60;37.51;103292.00;5014092;28;20026;-75
2022/03/22 10:21:50;;;;;;;30.38;21.73;;;;;;;24.65;38.37;103278.81;5019911;28;20091;-75
2022/03/22 10:24:15;;;;;;;28.85;20.98;;;;;;;24.24;38.52;103298.06;4997813;28;20032;-75
2022/03/22 10:26:46;;;;;;;28.17;20.05;;;;;;;24.31;38.43;103282.00;5009932;28;20108;-75
2022/03/22 10:29:14;;;;;;;29.98;20.40;;;;;;;25.18;36.70;103286.81;5006165;28;20061;-75
2022/03/22 10:31:40;;;;;;;25.02;20.25;;;;;;;23.87;38.08;103282.69;5017906;28;20540;-75
2022/03/22 10:34:07;;;;;;;26.30;20.55;;;;;;;24.14;38.02;103292.91;5022107;28;20029;-75
2022/03/22 10:36:41;;;;;;;24.75;18.17;;;;;;;24.17;39.18;103287.16;5018276;28;20468;-75
2022/03/22 10:39:11;;;;;;;26.95;19.23;;;;;;;25.28;36.71;103271.13;5024275;28;20033;-75
2022/03/22 10:41:38;;;;;;;;;;;;;;;25.05;37.23;103285.59;5005700;28;20029;-74
2022/03/22 10:44:14;;;;;;;29.00;20.88;;;;;;;25.43;35.09;103288.19;5021815;28;19916;-74
2022/03/22 10:46:42;;;;;;;27.27;20.40;;;;;;;24.35;37.06;103289.53;5015116;28;20257;-75
2022/03/22 10:49:13;;;;;;;25.85;18.80;;;;;;;23.37;38.62;103272.16;5014048;28;20041;-75
2022/03/22 10:51:45;;;;;;;28.38;18.70;;;;;;;24.92;39.06;103274.63;5018713;28;20113;-75
2022/03/22 10:54:19;;;;;;;26.13;18.63;;;;;;;26.91;34.60;103274.88;5022988;28;20097;-75
2022/03/22 10:56:50;;;;;;;27.80;20.48;;;;;;;25.37;36.50;103283.53;5021656;28;20428;-75
2022/03/22 10:59:18;;;;;;;29.42;20.55;;;;;;;25.60;36.42;103277.97;5013152;28;20038;-75
2022/03/22 11:01:45;;;;;;;27.85;20.52;;;;;;;24.60;37.71;103286.63;5016321;28;20120;-75
2022/03/22 11:04:15;;;;;;;29.30;20.35;;;;;;;25.69;36.52;103258.91;5004224;28;20545;-74
2022/03/22 11:06:41;;;;;;;26.92;19.67;;;;;;;27.73;34.15;103273.09;5023356;28;20030;-74
2022/03/22 11:09:07;;;;;;;27.45;19.80;;;;;;;27.42;33.11;103274.50;5010693;28;20064;-74
2022/03/22 11:11:33;;;;;;;27.38;19.48;;;;;;;26.54;34.69;103276.91;4997865;28;20455;-74
2022/03/22 11:14:00;;;;;;;27.23;20.02;;;;;;;26.04;35.47;103276.13;5023938;28;20386;-74
2022/03/22 11:16:32;;;;;;;27.85;21.05;;;;;;;24.68;37.55;103269.50;5023647;28;20555;-74
2022/03/22 11:19:02;;;;;;;28.50;19.50;;;;;;;24.01;37.71;103271.94;5015724;28;20091;-74
2022/03/22 11:21:29;;;;;;;27.23;20.08;;;;;;;23.29;39.46;103265.97;5026525;28;20021;-75
2022/03/22 11:24:09;;;;;;;28.63;20.13;;;;;;;23.26;39.74;103250.19;5022881;28;20421;-75
2022/03/22 11:26:46;;;;;;;30.05;20.55;;;;;;;23.26;39.73;103266.34;5016868;28;20022;-75
2022/03/22 11:29:14;;;;;;;27.38;19.75;;;;;;;23.73;39.12;103257.28;5018185;28;20032;-75
2022/03/22 11:31:41;;;;;;;35.40;19.92;;;;;;;23.45;39.95;103248.88;5023068;28;20018;-75
2022/03/22 11:34:09;;;;;;;29.05;19.85;;;;;;;22.59;40.01;103254.91;5025119;28;20033;-75
2022/03/22 11:36:39;;;;;;;28.48;20.88;;;;;;;22.19;41.35;103259.31;5013378;28;20025;-75
2022/03/22 11:39:05;;;;;;;27.00;19.35;;;;;;;23.06;40.26;103255.13;5024128;28;20029;-75